createdAt,value
2019-02-06T00:00:06.493Z,80.52
2019-02-06T00:01:06.550Z,80.43
2019-02-06T00:02:06.545Z,80.52
2019-02-06T00:03:06.573Z,80.43
2019-02-06T00:04:06.609Z,80.33
2019-02-06T00:05:13.902Z,80.62
2019-02-06T00:06:06.658Z,80.33
2019-02-06T00:07:06.687Z,80.99
2019-02-06T00:08:06.715Z,81.09
2019-02-06T00:09:06.742Z,80.71
2019-02-06T00:10:06.772Z,81.09
2019-02-06T00:11:06.799Z,81.18
2019-02-06T00:12:06.829Z,80.43
2019-02-06T00:13:06.884Z,80.43
2019-02-06T00:14:06.887Z,80.99
2019-02-06T00:15:06.914Z,80.52
2019-02-06T00:16:06.941Z,80.52
2019-02-06T00:17:06.984Z,80.90
2019-02-06T00:18:07.015Z,80.62
2019-02-06T00:19:07.026Z,80.62
2019-02-06T00:20:07.054Z,80.62
2019-02-06T00:21:07.084Z,80.43
2019-02-06T00:22:07.116Z,80.80
2019-02-06T00:23:07.141Z,80.80
2019-02-06T00:24:07.167Z,80.52
2019-02-06T00:25:07.198Z,80.90
2019-02-06T00:26:07.225Z,80.90
2019-02-06T00:27:07.257Z,80.71
2019-02-06T00:28:07.281Z,80.62
2019-02-06T00:29:07.310Z,80.24
2019-02-06T00:30:07.340Z,80.14
2019-02-06T00:31:07.367Z,79.95
2019-02-06T00:32:07.396Z,79.95
2019-02-06T00:33:07.425Z,80.24
2019-02-06T00:34:07.454Z,80.14
2019-02-06T00:35:07.480Z,80.14
2019-02-06T00:36:07.515Z,80.33
2019-02-06T00:37:07.536Z,80.62
2019-02-06T00:38:07.565Z,80.62
2019-02-06T00:39:07.594Z,80.24
2019-02-06T00:40:07.621Z,80.14
2019-02-06T00:41:07.648Z,80.62
2019-02-06T00:42:07.677Z,80.43
2019-02-06T00:43:07.706Z,80.33
2019-02-06T00:44:07.735Z,80.90
2019-02-06T00:45:07.763Z,80.48
2019-02-06T00:46:07.793Z,80.80
2019-02-06T00:47:07.821Z,80.43
2019-02-06T00:48:07.847Z,80.43
2019-02-06T00:49:07.878Z,80.52
2019-02-06T00:50:07.905Z,80.71
2019-02-06T00:51:07.934Z,80.14
2019-02-06T00:52:07.961Z,80.14
2019-02-06T00:53:07.993Z,79.95
2019-02-06T00:54:08.018Z,80.43
2019-02-06T00:55:08.046Z,80.52
2019-02-06T00:56:08.073Z,80.33
2019-02-06T00:57:08.209Z,79.85
2019-02-06T00:58:08.129Z,79.95
2019-02-06T00:59:08.157Z,79.76
2019-02-06T01:00:08.186Z,79.85
2019-02-06T01:01:08.213Z,79.38
2019-02-06T01:02:08.242Z,79.72
2019-02-06T01:03:08.271Z,79.72
2019-02-06T01:04:08.298Z,79.72
2019-02-06T01:05:08.326Z,80.19
2019-02-06T01:06:08.356Z,79.82
2019-02-06T01:07:08.384Z,80.14
2019-02-06T01:08:08.412Z,80.19
2019-02-06T01:09:08.444Z,79.85
2019-02-06T01:10:08.467Z,79.76
2019-02-06T01:11:08.497Z,79.95
2019-02-06T01:12:08.525Z,79.38
2019-02-06T01:13:08.551Z,79.47
2019-02-06T01:14:08.579Z,79.66
2019-02-06T01:15:08.607Z,79.57
2019-02-06T01:16:08.634Z,79.57
2019-02-06T01:17:08.663Z,79.28
2019-02-06T01:18:08.693Z,79.57
2019-02-06T01:19:08.722Z,79.28
2019-02-06T01:20:08.749Z,79.28
2019-02-06T01:21:08.776Z,79.25
2019-02-06T01:22:08.809Z,79.47
2019-02-06T01:23:08.833Z,79.47
2019-02-06T01:24:08.860Z,79.25
2019-02-06T01:25:08.895Z,79.44
2019-02-06T01:26:08.917Z,79.25
2019-02-06T01:27:08.947Z,79.53
2019-02-06T01:28:08.973Z,79.44
2019-02-06T01:29:09.001Z,79.53
2019-02-06T01:30:09.039Z,79.44
2019-02-06T01:31:09.061Z,79.44
2019-02-06T01:32:09.086Z,79.53
2019-02-06T01:33:09.115Z,79.44
2019-02-06T01:34:09.145Z,79.38
2019-02-06T01:35:09.171Z,79.00
2019-02-06T01:36:09.197Z,79.34
2019-02-06T01:37:09.227Z,79.28
2019-02-06T01:38:09.254Z,78.91
2019-02-06T01:39:09.285Z,78.81
2019-02-06T01:40:09.310Z,78.53
2019-02-06T01:41:09.347Z,78.72
2019-02-06T01:42:09.368Z,78.91
2019-02-06T01:43:09.396Z,79.00
2019-02-06T01:44:09.424Z,78.91
2019-02-06T01:45:09.451Z,78.34
2019-02-06T01:46:09.481Z,78.15
2019-02-06T01:47:09.530Z,78.05
2019-02-06T01:48:09.536Z,78.24
2019-02-06T01:49:09.565Z,77.86
2019-02-06T01:50:09.593Z,78.34
2019-02-06T01:51:09.643Z,77.92
2019-02-06T01:52:09.649Z,78.11
2019-02-06T01:53:09.684Z,78.53
2019-02-06T01:54:09.718Z,78.39
2019-02-06T01:55:09.734Z,78.43
2019-02-06T01:56:09.763Z,78.02
2019-02-06T01:57:09.789Z,78.20
2019-02-06T01:58:09.817Z,78.20
2019-02-06T01:59:09.849Z,78.20
2019-02-06T02:00:09.874Z,78.05
2019-02-06T02:01:09.902Z,78.34
2019-02-06T02:02:09.931Z,78.02
2019-02-06T02:03:09.959Z,78.15
2019-02-06T02:04:09.988Z,77.96
2019-02-06T02:05:10.015Z,77.86
2019-02-06T02:06:10.047Z,77.77
2019-02-06T02:07:10.169Z,77.96
2019-02-06T02:08:10.100Z,77.77
2019-02-06T02:09:10.127Z,77.67
2019-02-06T02:10:10.157Z,77.48
2019-02-06T02:11:10.185Z,77.29
2019-02-06T02:12:10.213Z,77.77
2019-02-06T02:13:10.241Z,77.54
2019-02-06T02:14:10.272Z,78.05
2019-02-06T02:15:10.298Z,77.86
2019-02-06T02:16:10.324Z,78.05
2019-02-06T02:17:10.352Z,77.48
2019-02-06T02:18:10.382Z,77.58
2019-02-06T02:19:10.412Z,77.67
2019-02-06T02:20:10.507Z,77.58
2019-02-06T02:21:10.466Z,77.67
2019-02-06T02:22:10.495Z,77.58
2019-02-06T02:23:10.523Z,77.67
2019-02-06T02:24:10.551Z,77.48
2019-02-06T02:25:10.579Z,77.67
2019-02-06T02:26:10.606Z,77.58
2019-02-06T02:27:10.636Z,77.29
2019-02-06T02:28:10.663Z,77.39
2019-02-06T02:29:10.692Z,76.92
2019-02-06T02:30:10.721Z,76.54
2019-02-06T02:31:10.748Z,76.73
2019-02-06T02:32:10.899Z,76.73
2019-02-06T02:33:10.808Z,76.92
2019-02-06T02:34:10.832Z,76.82
2019-02-06T02:35:10.867Z,76.54
2019-02-06T02:36:16.101Z,77.20
2019-02-06T02:37:10.917Z,77.29
2019-02-06T02:38:10.954Z,77.58
2019-02-06T02:39:10.985Z,77.11
2019-02-06T02:40:11.001Z,76.54
2019-02-06T02:41:11.031Z,76.06
2019-02-06T02:42:11.059Z,76.25
2019-02-06T02:43:11.087Z,75.78
2019-02-06T02:44:11.115Z,76.15
2019-02-06T02:45:11.142Z,75.96
2019-02-06T02:46:11.173Z,76.44
2019-02-06T02:47:11.200Z,76.15
2019-02-06T02:48:11.239Z,76.54
2019-02-06T02:49:11.256Z,76.44
2019-02-06T02:50:11.285Z,76.44
2019-02-06T02:51:11.313Z,76.34
2019-02-06T02:52:11.341Z,76.34
2019-02-06T02:53:11.372Z,76.34
2019-02-06T02:54:11.399Z,76.34
2019-02-06T02:55:11.427Z,76.31
2019-02-06T02:56:11.453Z,76.54
2019-02-06T02:57:11.487Z,75.78
2019-02-06T02:58:11.510Z,75.87
2019-02-06T02:59:11.538Z,75.87
2019-02-06T03:00:11.565Z,76.25
2019-02-06T03:01:11.593Z,76.06
2019-02-06T03:02:11.625Z,75.87
2019-02-06T03:03:11.651Z,75.68
2019-02-06T03:04:11.678Z,75.96
2019-02-06T03:05:11.708Z,75.96
2019-02-06T03:06:11.738Z,75.40
2019-02-06T03:07:11.767Z,75.78
2019-02-06T03:08:11.792Z,75.96
2019-02-06T03:09:11.821Z,75.40
2019-02-06T03:10:11.850Z,75.31
2019-02-06T03:11:11.880Z,75.40
2019-02-06T03:12:11.905Z,75.11
2019-02-06T03:13:11.933Z,75.59
2019-02-06T03:14:11.962Z,75.59
2019-02-06T03:15:11.990Z,75.40
2019-02-06T03:16:12.017Z,75.96
2019-02-06T03:17:12.045Z,75.68
2019-02-06T03:18:12.074Z,75.07
2019-02-06T03:19:12.103Z,75.40
2019-02-06T03:20:12.130Z,75.68
2019-02-06T03:21:12.157Z,75.31
2019-02-06T03:22:12.187Z,75.21
2019-02-06T03:23:12.217Z,75.11
2019-02-06T03:24:12.243Z,74.92
2019-02-06T03:25:12.272Z,74.64
2019-02-06T03:26:12.299Z,75.02
2019-02-06T03:27:12.327Z,74.64
2019-02-06T03:28:12.355Z,74.73
2019-02-06T03:29:12.383Z,74.92
2019-02-06T03:30:12.413Z,74.92
2019-02-06T03:31:12.448Z,74.73
2019-02-06T03:32:12.469Z,74.64
2019-02-06T03:33:12.496Z,74.92
2019-02-06T03:34:12.524Z,74.35
2019-02-06T03:35:12.553Z,73.97
2019-02-06T03:36:12.580Z,74.45
2019-02-06T03:37:12.609Z,74.54
2019-02-06T03:38:12.637Z,74.26
2019-02-06T03:39:12.677Z,74.07
2019-02-06T03:40:12.697Z,73.88
2019-02-06T03:41:12.735Z,74.26
2019-02-06T03:42:12.749Z,74.16
2019-02-06T03:43:12.778Z,74.16
2019-02-06T03:44:12.813Z,74.07
2019-02-06T03:45:12.836Z,73.97
2019-02-06T03:46:12.865Z,73.79
2019-02-06T03:47:12.892Z,73.88
2019-02-06T03:48:12.919Z,73.60
2019-02-06T03:49:12.949Z,73.12
2019-02-06T03:50:12.977Z,73.50
2019-02-06T03:51:13.005Z,73.50
2019-02-06T03:52:13.032Z,73.22
2019-02-06T03:53:13.059Z,73.22
2019-02-06T03:54:13.089Z,72.93
2019-02-06T03:55:13.121Z,73.12
2019-02-06T03:56:13.145Z,73.22
2019-02-06T03:57:13.175Z,72.93
2019-02-06T03:58:13.202Z,73.03
2019-02-06T03:59:13.230Z,73.12
2019-02-06T04:00:13.257Z,72.84
2019-02-06T04:01:13.284Z,73.41
2019-02-06T04:02:13.315Z,73.22
2019-02-06T04:03:20.506Z,73.31
2019-02-06T04:05:17.367Z,73.12
2019-02-06T04:06:17.392Z,72.84
2019-02-06T04:08:21.415Z,72.93
2019-02-06T04:09:21.441Z,72.64
2019-02-06T04:11:25.463Z,73.03
2019-02-06T04:12:25.487Z,73.31
2019-02-06T04:14:18.431Z,73.31
2019-02-06T04:15:18.452Z,72.93
2019-02-06T04:17:22.473Z,73.03
2019-02-06T04:18:22.497Z,73.50
2019-02-06T04:20:26.526Z,73.69
2019-02-06T04:21:26.554Z,73.31
2019-02-06T04:23:30.577Z,73.97
2019-02-06T04:24:30.598Z,74.16
2019-02-06T04:26:34.620Z,74.07
2019-02-06T04:27:34.642Z,74.07
2019-02-06T04:29:38.665Z,74.07
2019-02-06T04:30:38.686Z,74.07
2019-02-06T04:32:42.714Z,73.88
2019-02-06T04:33:42.732Z,73.69
2019-02-06T04:35:46.772Z,73.97
2019-02-06T04:36:46.778Z,73.69
2019-02-06T04:38:50.799Z,73.79
2019-02-06T04:39:50.823Z,73.97
2019-02-06T04:41:54.845Z,74.07
2019-02-06T04:42:54.868Z,74.45
2019-02-06T04:44:58.890Z,74.26
2019-02-06T04:45:58.913Z,75.02
2019-02-06T04:48:02.938Z,74.64
2019-02-06T04:49:02.965Z,74.73
2019-02-06T04:51:07.004Z,75.21
2019-02-06T04:52:07.006Z,75.49
2019-02-06T04:53:59.950Z,75.96
2019-02-06T04:54:59.969Z,75.78
2019-02-06T04:57:04.071Z,75.87
2019-02-06T04:58:04.018Z,76.63
2019-02-06T05:00:08.037Z,77.01
2019-02-06T05:01:08.063Z,76.82
2019-02-06T05:03:12.083Z,77.01
2019-02-06T05:04:12.107Z,77.01
2019-02-06T05:06:16.164Z,77.11
2019-02-06T05:07:19.423Z,77.58
2019-02-06T05:09:20.170Z,77.64
2019-02-06T05:10:20.201Z,77.64
2019-02-06T05:12:24.237Z,78.30
2019-02-06T05:13:24.258Z,78.11
2019-02-06T05:15:28.281Z,78.11
2019-02-06T05:16:28.305Z,78.77
2019-02-06T05:18:32.327Z,78.96
2019-02-06T05:19:32.348Z,79.53
2019-02-06T05:21:36.380Z,79.53
2019-02-06T05:22:36.407Z,79.53
2019-02-06T05:24:29.350Z,80.10
2019-02-06T05:25:29.370Z,80.38
2019-02-06T05:27:33.393Z,80.19
2019-02-06T05:28:33.416Z,80.10
2019-02-06T05:30:37.435Z,80.00
2019-02-06T05:31:37.461Z,80.48
2019-02-06T05:33:41.502Z,80.76
2019-02-06T05:34:41.509Z,80.29
2019-02-06T05:36:45.560Z,81.05
2019-02-06T05:37:45.714Z,81.24
2019-02-06T05:39:49.575Z,81.33
2019-02-06T05:40:49.600Z,81.99
2019-02-06T05:42:53.641Z,81.52
2019-02-06T05:43:53.648Z,81.52
2019-02-06T05:45:57.672Z,81.33
2019-02-06T05:46:57.693Z,81.33
2019-02-06T05:49:01.717Z,81.33
2019-02-06T05:50:01.741Z,81.33
2019-02-06T05:52:05.777Z,82.37
2019-02-06T05:53:05.787Z,82.37
2019-02-06T05:55:09.821Z,82.28
2019-02-06T05:56:09.835Z,82.47
2019-02-06T05:58:13.932Z,82.75
2019-02-06T05:59:13.878Z,82.66
2019-02-06T06:01:17.904Z,82.94
2019-02-06T06:02:17.926Z,82.56
2019-02-06T06:04:10.865Z,83.04
2019-02-06T06:05:10.886Z,82.37
2019-02-06T06:07:14.930Z,82.85
2019-02-06T06:08:14.936Z,82.85
2019-02-06T06:10:18.958Z,82.75
2019-02-06T06:11:18.984Z,82.94
2019-02-06T06:13:23.021Z,83.18
2019-02-06T06:14:23.024Z,83.23
2019-02-06T06:16:27.044Z,83.23
2019-02-06T06:17:27.130Z,82.90
2019-02-06T06:19:31.088Z,83.85
2019-02-06T06:20:31.110Z,83.70
2019-02-06T06:22:35.151Z,83.85
2019-02-06T06:23:35.158Z,83.85
2019-02-06T06:25:39.181Z,83.85
2019-02-06T06:26:39.205Z,84.08
2019-02-06T06:28:43.258Z,83.61
2019-02-06T06:29:43.252Z,83.89
2019-02-06T06:31:47.292Z,84.32
2019-02-06T06:32:47.320Z,84.27
2019-02-06T06:34:51.321Z,84.36
2019-02-06T06:35:51.346Z,84.23
2019-02-06T06:38:02.522Z,84.61
2019-02-06T06:38:55.392Z,84.32
2019-02-06T06:40:59.412Z,84.70
2019-02-06T06:41:59.434Z,84.80
2019-02-06T06:43:52.379Z,84.89
2019-02-06T06:44:52.401Z,84.51
2019-02-06T06:46:56.434Z,84.89
2019-02-06T06:47:56.445Z,84.70
2019-02-06T06:50:00.469Z,84.70
2019-02-06T06:51:00.494Z,84.23
2019-02-06T06:53:04.532Z,84.89
2019-02-06T06:54:04.544Z,84.99
2019-02-06T06:55:04.600Z,84.80
2019-02-06T06:56:04.595Z,84.61
2019-02-06T06:57:04.620Z,84.80
2019-02-06T06:58:04.649Z,84.70
2019-02-06T06:59:04.678Z,84.42
2019-02-06T07:00:04.704Z,85.08
2019-02-06T07:01:04.729Z,84.32
2019-02-06T07:02:04.757Z,85.36
2019-02-06T07:03:04.785Z,84.80
2019-02-06T07:04:04.813Z,85.08
2019-02-06T07:05:05.689Z,85.27
2019-02-06T07:06:04.867Z,85.17
2019-02-06T07:07:04.897Z,84.99
2019-02-06T07:08:11.211Z,84.89
2019-02-06T07:09:04.951Z,84.51
2019-02-06T07:10:04.978Z,85.17
2019-02-06T07:11:05.010Z,84.99
2019-02-06T07:12:05.033Z,84.89
2019-02-06T07:13:05.058Z,85.55
2019-02-06T07:14:05.089Z,85.17
2019-02-06T07:15:05.116Z,86.03
2019-02-06T07:16:05.142Z,85.65
2019-02-06T07:17:05.168Z,85.36
2019-02-06T07:18:05.196Z,85.84
2019-02-06T07:19:05.226Z,85.55
2019-02-06T07:20:05.252Z,85.36
2019-02-06T07:21:05.279Z,86.31
2019-02-06T07:22:05.305Z,85.36
2019-02-06T07:23:05.338Z,85.55
2019-02-06T07:24:05.363Z,85.17
2019-02-06T07:25:05.404Z,85.84
2019-02-06T07:26:05.416Z,85.84
2019-02-06T07:27:05.442Z,85.84
2019-02-06T07:28:05.478Z,86.03
2019-02-06T07:29:05.497Z,85.55
2019-02-06T07:30:05.525Z,85.65
2019-02-06T07:31:05.554Z,85.84
2019-02-06T07:32:05.580Z,85.27
2019-02-06T07:33:05.607Z,85.74
2019-02-06T07:34:05.638Z,84.89
2019-02-06T07:35:05.662Z,85.65
2019-02-06T07:36:05.689Z,85.65
2019-02-06T07:37:05.716Z,85.55
2019-02-06T07:38:05.744Z,85.55
2019-02-06T07:39:05.775Z,85.27
2019-02-06T07:40:05.799Z,85.36
2019-02-06T07:41:05.825Z,85.36
2019-02-06T07:42:05.853Z,84.99
2019-02-06T07:43:05.881Z,84.99
2019-02-06T07:44:05.908Z,85.36
2019-02-06T07:45:05.934Z,84.70
2019-02-06T07:46:06.089Z,85.08
2019-02-06T07:47:05.990Z,84.99
2019-02-06T07:48:06.021Z,84.61
2019-02-06T07:49:06.044Z,84.89
2019-02-06T07:50:06.071Z,84.99
2019-02-06T07:51:06.099Z,84.70
2019-02-06T07:52:06.126Z,84.42
2019-02-06T07:53:06.153Z,84.04
2019-02-06T07:54:06.181Z,85.08
2019-02-06T07:55:06.207Z,84.23
2019-02-06T07:56:06.236Z,84.61
2019-02-06T07:57:06.262Z,84.80
2019-02-06T07:58:06.290Z,84.51
2019-02-06T07:59:06.319Z,84.23
2019-02-06T08:00:06.347Z,84.80
2019-02-06T08:01:06.383Z,84.32
2019-02-06T08:02:06.399Z,83.66
2019-02-06T08:03:06.426Z,84.89
2019-02-06T08:04:06.453Z,84.32
2019-02-06T08:05:06.481Z,84.99
2019-02-06T08:06:06.515Z,84.80
2019-02-06T08:07:06.534Z,84.42
2019-02-06T08:08:06.564Z,85.08
2019-02-06T08:09:06.589Z,84.23
2019-02-06T08:10:06.621Z,84.32
2019-02-06T08:11:06.644Z,84.23
2019-02-06T08:12:06.672Z,84.32
2019-02-06T08:13:06.699Z,84.13
2019-02-06T08:14:06.724Z,84.23
2019-02-06T08:15:06.752Z,83.94
2019-02-06T08:16:07.402Z,83.94
2019-02-06T08:17:06.805Z,83.85
2019-02-06T08:18:06.949Z,83.85
2019-02-06T08:19:06.861Z,83.94
2019-02-06T08:20:06.888Z,83.66
2019-02-06T08:21:06.916Z,84.04
2019-02-06T08:22:06.943Z,83.66
2019-02-06T08:23:06.970Z,83.56
2019-02-06T08:24:07.006Z,83.94
2019-02-06T08:25:07.023Z,84.04
2019-02-06T08:26:07.052Z,83.85
2019-02-06T08:27:07.079Z,83.37
2019-02-06T08:28:07.107Z,83.56
2019-02-06T08:29:07.133Z,83.37
2019-02-06T08:30:07.167Z,83.00
2019-02-06T08:31:07.203Z,83.00
2019-02-06T08:32:07.217Z,83.09
2019-02-06T08:33:07.246Z,83.28
2019-02-06T08:34:07.273Z,82.94
2019-02-06T08:35:07.297Z,82.85
2019-02-06T08:36:07.324Z,82.62
2019-02-06T08:37:07.351Z,82.81
2019-02-06T08:38:07.380Z,82.52
2019-02-06T08:39:07.406Z,82.90
2019-02-06T08:40:07.438Z,82.14
2019-02-06T08:41:07.460Z,81.95
2019-02-06T08:42:07.488Z,81.86
2019-02-06T08:43:07.515Z,81.99
2019-02-06T08:44:07.543Z,81.99
2019-02-06T08:45:07.569Z,82.09
2019-02-06T08:46:07.629Z,81.90
2019-02-06T08:47:07.630Z,81.52
2019-02-06T08:48:07.652Z,81.71
2019-02-06T08:49:09.016Z,81.52
2019-02-06T08:50:07.706Z,81.24
2019-02-06T08:51:07.734Z,81.43
2019-02-06T08:52:07.779Z,81.05
2019-02-06T08:53:07.788Z,81.05
2019-02-06T08:54:07.816Z,81.05
2019-02-06T08:55:07.844Z,80.48
2019-02-06T08:56:07.870Z,80.95
2019-02-06T08:57:07.897Z,80.67
2019-02-06T08:58:07.927Z,80.67
2019-02-06T08:59:07.952Z,80.19
2019-02-06T09:00:07.980Z,80.29
2019-02-06T09:01:08.007Z,80.29
2019-02-06T09:02:08.035Z,80.00
2019-02-06T09:03:08.065Z,79.91
2019-02-06T09:04:08.091Z,79.82
2019-02-06T09:05:08.121Z,79.44
2019-02-06T09:06:08.144Z,79.53
2019-02-06T09:07:08.171Z,79.44
2019-02-06T09:08:08.199Z,79.15
2019-02-06T09:09:08.229Z,79.34
2019-02-06T09:10:08.257Z,79.34
2019-02-06T09:11:08.281Z,79.34
2019-02-06T09:12:08.313Z,79.57
2019-02-06T09:13:08.336Z,79.19
2019-02-06T09:14:08.365Z,78.72
2019-02-06T09:15:08.392Z,78.34
2019-02-06T09:16:08.420Z,77.77
2019-02-06T09:17:08.446Z,77.86
2019-02-06T09:18:08.476Z,77.58
2019-02-06T09:19:08.501Z,78.24
2019-02-06T09:20:08.531Z,77.67
2019-02-06T09:21:08.557Z,78.34
2019-02-06T09:22:08.585Z,78.34
2019-02-06T09:23:08.613Z,78.05
2019-02-06T09:24:08.641Z,77.67
2019-02-06T09:25:08.668Z,77.77
2019-02-06T09:26:08.696Z,76.82
2019-02-06T09:27:08.729Z,76.54
2019-02-06T09:28:08.753Z,76.25
2019-02-06T09:29:08.777Z,76.34
2019-02-06T09:30:08.809Z,76.29
2019-02-06T09:31:08.834Z,76.20
2019-02-06T09:32:08.864Z,75.81
2019-02-06T09:33:08.890Z,75.34
2019-02-06T09:34:09.702Z,74.96
2019-02-06T09:35:08.947Z,74.87
2019-02-06T09:36:08.989Z,74.30
2019-02-06T09:37:09.004Z,74.39
2019-02-06T09:38:09.032Z,74.58
2019-02-06T09:39:11.796Z,74.11
2019-02-06T09:40:09.089Z,73.54
2019-02-06T09:41:09.116Z,73.48
2019-02-06T09:42:09.143Z,73.10
2019-02-06T09:43:09.173Z,72.91
2019-02-06T09:44:09.201Z,71.77
2019-02-06T09:45:09.229Z,71.30
2019-02-06T09:46:09.257Z,71.11
2019-02-06T09:47:09.286Z,71.11
2019-02-06T09:48:09.313Z,70.82
2019-02-06T09:49:09.343Z,71.04
2019-02-06T09:50:09.371Z,70.38
2019-02-06T09:51:09.402Z,70.00
2019-02-06T09:52:09.432Z,70.00
2019-02-06T09:53:09.482Z,69.71
2019-02-06T09:54:09.485Z,68.58
2019-02-06T09:55:09.529Z,68.29
2019-02-06T09:56:09.565Z,67.44
2019-02-06T09:57:09.571Z,67.34
2019-02-06T09:58:09.601Z,67.82
2019-02-06T09:59:09.630Z,68.19
2019-02-06T10:00:09.658Z,68.29
2019-02-06T10:01:09.688Z,67.72
2019-02-06T10:02:09.718Z,68.01
2019-02-06T10:03:09.821Z,67.25
2019-02-06T10:04:16.942Z,67.76
2019-02-06T10:06:13.798Z,66.90
2019-02-06T10:07:13.826Z,67.94
2019-02-06T10:09:23.105Z,67.94
2019-02-06T10:10:17.878Z,67.66
2019-02-06T10:12:11.950Z,67.15
2019-02-06T10:13:11.096Z,67.63
2019-02-06T10:15:04.048Z,67.53
2019-02-06T10:16:04.061Z,67.63
2019-02-06T10:18:08.109Z,67.28
2019-02-06T10:19:08.117Z,67.09
2019-02-06T10:21:12.144Z,67.19
2019-02-06T10:22:12.171Z,66.90
2019-02-06T10:24:18.980Z,66.46
2019-02-06T10:25:16.239Z,65.89
2019-02-06T10:27:20.265Z,64.18
2019-02-06T10:28:20.295Z,63.89
2019-02-06T10:30:13.441Z,63.32
2019-02-06T10:31:13.463Z,63.35
2019-02-06T10:33:06.609Z,62.69
2019-02-06T10:34:06.638Z,62.30
2019-02-06T10:36:10.672Z,61.10
2019-02-06T10:37:10.700Z,60.34
2019-02-06T10:39:14.752Z,59.03
2019-02-06T10:40:14.774Z,58.11
2019-02-06T10:42:18.804Z,54.29
2019-02-06T10:43:18.829Z,52.81
2019-02-06T10:45:22.866Z,46.27
2019-02-06T10:46:22.893Z,45.62
2019-02-06T10:48:26.957Z,44.36
2019-02-06T10:49:26.969Z,45.20
2019-02-06T10:51:20.125Z,47.34
2019-02-06T10:52:20.151Z,48.59
2019-02-06T10:54:24.196Z,48.61
2019-02-06T10:55:24.246Z,47.68
2019-02-06T10:57:26.317Z,46.34
2019-02-06T10:58:26.348Z,45.96
2019-02-06T11:00:30.379Z,46.17
2019-02-06T11:01:30.414Z,45.58
2019-02-06T11:03:34.545Z,45.58
2019-02-06T11:04:34.488Z,46.13
2019-02-06T11:06:38.524Z,46.99
2019-02-06T11:07:38.558Z,46.92
2019-02-06T11:09:46.147Z,45.72
2019-02-06T11:10:42.628Z,42.56
2019-02-06T11:12:46.663Z,40.33
2019-02-06T11:13:49.633Z,38.81
2019-02-06T11:15:50.738Z,36.53
2019-02-06T11:16:50.766Z,36.07
2019-02-06T11:18:54.823Z,36.40
2019-02-06T11:19:54.842Z,37.92
2019-02-06T11:21:58.876Z,39.33
2019-02-06T11:22:58.905Z,39.60
2019-02-06T11:24:51.870Z,42.02
2019-02-06T11:25:51.904Z,42.96
2019-02-06T11:27:55.934Z,45.99
2019-02-06T11:28:55.966Z,46.34
2019-02-06T11:31:00.006Z,49.08
2019-02-06T11:32:00.038Z,49.82
2019-02-06T11:33:00.063Z,50.68
2019-02-06T11:34:00.106Z,51.70
2019-02-06T11:35:02.369Z,52.28
2019-02-06T11:36:00.168Z,52.56
2019-02-06T11:37:00.198Z,53.32
2019-02-06T11:38:00.233Z,53.52
2019-02-06T11:39:00.267Z,54.18
2019-02-06T11:40:00.298Z,54.27
2019-02-06T11:41:00.338Z,54.47
2019-02-06T11:42:00.364Z,54.18
2019-02-06T11:43:00.396Z,54.18
2019-02-06T11:44:00.429Z,53.92
2019-02-06T11:45:00.531Z,53.54
2019-02-06T11:46:00.496Z,53.06
2019-02-06T11:47:00.527Z,52.61
2019-02-06T11:48:00.559Z,52.33
2019-02-06T11:49:00.592Z,51.59
2019-02-06T11:50:00.660Z,50.57
2019-02-06T11:51:00.659Z,48.59
2019-02-06T11:52:00.692Z,47.94
2019-02-06T11:53:00.721Z,46.13
2019-02-06T11:54:00.757Z,45.01
2019-02-06T11:55:00.808Z,44.53
2019-02-06T11:56:00.821Z,45.10
2019-02-06T11:57:00.851Z,44.24
2019-02-06T11:58:00.883Z,43.57
2019-02-06T11:59:00.917Z,43.66
2019-02-06T12:00:00.948Z,43.30
2019-02-06T12:01:01.078Z,43.12
2019-02-06T12:02:01.031Z,42.93
2019-02-06T12:03:01.044Z,43.14
2019-02-06T12:04:01.077Z,42.07
2019-02-06T12:05:01.109Z,41.87
2019-02-06T12:06:01.142Z,42.33
2019-02-06T12:07:01.175Z,42.81
2019-02-06T12:08:01.213Z,43.00
2019-02-06T12:09:01.239Z,43.50
2019-02-06T12:10:09.469Z,42.76
2019-02-06T12:11:01.304Z,41.63
2019-02-06T12:12:01.336Z,40.09
2019-02-06T12:13:01.372Z,39.43
2019-02-06T12:14:01.400Z,39.45
2019-02-06T12:15:01.435Z,39.64
2019-02-06T12:16:01.469Z,38.87
2019-02-06T12:17:01.499Z,38.87
2019-02-06T12:18:01.530Z,38.56
2019-02-06T12:19:01.564Z,39.14
2019-02-06T12:20:01.595Z,39.62
2019-02-06T12:21:01.629Z,40.19
2019-02-06T12:22:01.660Z,40.00
2019-02-06T12:23:01.694Z,39.64
2019-02-06T12:24:01.727Z,38.78
2019-02-06T12:25:01.759Z,38.95
2019-02-06T12:26:01.792Z,38.95
2019-02-06T12:27:01.824Z,39.14
2019-02-06T12:28:01.858Z,40.15
2019-02-06T12:29:01.891Z,40.82
2019-02-06T12:30:01.923Z,41.58
2019-02-06T12:31:01.962Z,42.14
2019-02-06T12:32:02.121Z,42.60
2019-02-06T12:33:02.022Z,43.36
2019-02-06T12:34:02.055Z,44.58
2019-02-06T12:35:02.090Z,44.87
2019-02-06T12:36:02.122Z,46.11
2019-02-06T12:37:02.174Z,45.92
2019-02-06T12:38:02.189Z,46.58
2019-02-06T12:39:02.218Z,46.27
2019-02-06T12:40:02.250Z,46.82
2019-02-06T12:41:02.284Z,47.39
2019-02-06T12:42:02.316Z,48.08
2019-02-06T12:43:02.349Z,47.89
2019-02-06T12:44:02.382Z,47.61
2019-02-06T12:45:02.415Z,47.42
2019-02-06T12:46:02.450Z,47.52
2019-02-06T12:47:02.481Z,47.52
2019-02-06T12:48:02.534Z,47.25
2019-02-06T12:49:02.546Z,46.68
2019-02-06T12:50:02.580Z,46.87
2019-02-06T12:51:02.614Z,46.39
2019-02-06T12:52:02.645Z,46.75
2019-02-06T12:53:02.682Z,47.13
2019-02-06T12:54:02.713Z,47.52
2019-02-06T12:55:02.745Z,47.68
2019-02-06T12:56:02.779Z,48.37
2019-02-06T12:57:02.813Z,48.92
2019-02-06T12:58:02.971Z,49.11
2019-02-06T12:59:02.884Z,49.40
2019-02-06T13:00:02.912Z,49.78
2019-02-06T13:01:02.947Z,49.30
2019-02-06T13:02:02.979Z,49.49
2019-02-06T13:03:03.012Z,50.04
2019-02-06T13:04:03.045Z,50.42
2019-02-06T13:05:03.080Z,50.32
2019-02-06T13:06:03.112Z,50.71
2019-02-06T13:07:03.146Z,50.32
2019-02-06T13:08:03.179Z,50.54
2019-02-06T13:09:03.213Z,50.63
2019-02-06T13:10:03.248Z,49.97
2019-02-06T13:11:03.277Z,49.49
2019-02-06T13:12:03.308Z,49.49
2019-02-06T13:13:03.346Z,49.78
2019-02-06T13:14:03.375Z,48.73
2019-02-06T13:15:03.409Z,49.04
2019-02-06T13:16:03.441Z,48.37
2019-02-06T13:17:03.472Z,47.73
2019-02-06T13:18:03.507Z,47.61
2019-02-06T13:19:03.544Z,48.02
2019-02-06T13:20:03.572Z,47.44
2019-02-06T13:21:03.608Z,46.22
2019-02-06T13:22:03.639Z,45.56
2019-02-06T13:23:03.676Z,45.56
2019-02-06T13:24:03.707Z,45.84
2019-02-06T13:25:03.739Z,45.92
2019-02-06T13:26:03.775Z,46.11
2019-02-06T13:27:03.807Z,45.92
2019-02-06T13:28:03.839Z,46.30
2019-02-06T13:29:03.873Z,46.97
2019-02-06T13:30:03.908Z,46.39
2019-02-06T13:31:03.941Z,46.13
2019-02-06T13:32:03.978Z,46.03
2019-02-06T13:33:04.012Z,45.25
2019-02-06T13:34:04.040Z,46.11
2019-02-06T13:35:04.074Z,46.58
2019-02-06T13:36:04.111Z,47.42
2019-02-06T13:37:04.143Z,47.87
2019-02-06T13:38:04.179Z,49.21
2019-02-06T13:39:04.209Z,49.68
2019-02-06T13:40:04.250Z,50.16
2019-02-06T13:41:04.273Z,49.78
2019-02-06T13:42:05.556Z,49.78
2019-02-06T13:43:04.340Z,49.59
2019-02-06T13:44:04.373Z,49.62
2019-02-06T13:45:04.407Z,48.66
2019-02-06T13:46:04.440Z,47.73
2019-02-06T13:47:04.474Z,47.54
2019-02-06T13:48:04.506Z,46.68
2019-02-06T13:49:04.540Z,46.58
2019-02-06T13:50:04.574Z,46.77
2019-02-06T13:51:15.656Z,46.58
2019-02-06T13:52:04.637Z,46.68
2019-02-06T13:53:04.674Z,46.11
2019-02-06T13:54:04.706Z,46.56
2019-02-06T13:55:04.738Z,47.13
2019-02-06T13:56:04.771Z,47.52
2019-02-06T13:57:04.804Z,47.78
2019-02-06T13:58:04.840Z,47.78
2019-02-06T13:59:07.313Z,48.54
2019-02-06T14:00:04.903Z,49.37
2019-02-06T14:01:04.936Z,50.52
2019-02-06T14:02:04.967Z,50.52
2019-02-06T14:03:05.001Z,50.97
2019-02-06T14:04:05.033Z,51.45
2019-02-06T14:05:05.065Z,52.49
2019-02-06T14:06:05.101Z,52.20
2019-02-06T14:07:05.136Z,52.40
2019-02-06T14:08:05.164Z,52.49
2019-02-06T14:09:05.196Z,52.78
2019-02-06T14:10:05.232Z,52.68
2019-02-06T14:11:05.261Z,52.20
2019-02-06T14:12:05.292Z,52.30
2019-02-06T14:13:05.332Z,51.76
2019-02-06T14:14:05.356Z,50.35
2019-02-06T14:15:05.396Z,49.59
2019-02-06T14:16:05.423Z,48.94
2019-02-06T14:17:05.455Z,48.37
2019-02-06T14:18:05.488Z,48.08
2019-02-06T14:19:05.525Z,47.61
2019-02-06T14:20:05.553Z,47.34
2019-02-06T14:21:05.586Z,46.97